Oneida, Wisconsin
Current Conditions -  °F | °C
As of 4:53 PM on Tuesday 27 Jan 2015 (Local Time) from KGRB Reporting Station
Overcast Overcast  
Wind Chill: 25°   Ceiling: 3000
Heat Index: 25°   Visibility: 10mi
Dew Point: 17°   Wind: 0mph
Humidity: 72%   Direction: NA
Pressure: 30.25"   Gusts: NA
Location:  44.49°N, 88.22°W
Report Text: KGRB 272253Z 00000KT 10SM OVC030 M04/M08 A3025 RMK AO2 SLP254 T10391083
Loading
Personal Weather Stations






























Interactive Weather Map New forecast layout! Learn more

10-Day Weather Forecast

Advertisements
Track Severe Weather on mobile